sensor_id;sensor_type;location;lat;lon;timestamp;temperature;humidity
3846;DHT22;1938;50.812;7.738;2023-04-03T00:00:21;2.70;1.00
3846;DHT22;1938;50.812;7.738;2023-04-03T00:02:46;2.70;1.00
3846;DHT22;1938;50.812;7.738;2023-04-03T00:05:12;2.70;1.00
3846;DHT22;1938;50.812;7.738;2023-04-03T00:07:38;2.70;99.90
3846;DHT22;1938;50.812;7.738;2023-04-03T00:10:04;2.80;99.90
3846;DHT22;1938;50.812;7.738;2023-04-03T00:12:30;2.70;99.90
3846;DHT22;1938;50.812;7.738;2023-04-03T00:14:57;2.80;99.90
3846;DHT22;1938;50.812;7.738;2023-04-03T00:17:22;2.80;99.90
3846;DHT22;1938;50.812;7.738;2023-04-03T00:19:48;2.80;99.90
3846;DHT22;1938;50.812;7.738;2023-04-03T00:22:13;2.70;99.90
3846;DHT22;1938;50.812;7.738;2023-04-03T00:24:39;2.70;99.90
3846;DHT22;1938;50.812;7.738;2023-04-03T00:27:04;2.70;99.90
3846;DHT22;1938;50.812;7.738;2023-04-03T00:29:30;2.80;99.90
3846;DHT22;1938;50.812;7.738;2023-04-03T00:31:55;2.70;99.90
3846;DHT22;1938;50.812;7.738;2023-04-03T00:34:21;2.70;99.90
3846;DHT22;1938;50.812;7.738;2023-04-03T00:36:46;2.80;99.90
3846;DHT22;1938;50.812;7.738;2023-04-03T00:39:12;2.70;99.90
3846;DHT22;1938;50.812;7.738;2023-04-03T00:41:37;2.80;99.90
3846;DHT22;1938;50.812;7.738;2023-04-03T00:46:59;2.80;99.90
3846;DHT22;1938;50.812;7.738;2023-04-03T00:49:26;2.80;99.90
3846;DHT22;1938;50.812;7.738;2023-04-03T00:51:52;3.00;99.90
3846;DHT22;1938;50.812;7.738;2023-04-03T00:54:18;3.10;99.90
3846;DHT22;1938;50.812;7.738;2023-04-03T00:56:44;3.00;93.50
3846;DHT22;1938;50.812;7.738;2023-04-03T00:59:13;3.00;99.90
3846;DHT22;1938;50.812;7.738;2023-04-03T01:01:41;2.90;99.90
3846;DHT22;1938;50.812;7.738;2023-04-03T01:04:36;2.80;99.90
3846;DHT22;1938;50.812;7.738;2023-04-03T01:07:08;2.90;99.90
3846;DHT22;1938;50.812;7.738;2023-04-03T01:09:35;2.90;99.90
3846;DHT22;1938;50.812;7.738;2023-04-03T01:12:20;2.90;99.90
3846;DHT22;1938;50.812;7.738;2023-04-03T01:14:58;3.00;99.90
3846;DHT22;1938;50.812;7.738;2023-04-03T01:17:36;3.00;99.90
3846;DHT22;1938;50.812;7.738;2023-04-03T01:25:56;2.90;99.90
3846;DHT22;1938;50.812;7.738;2023-04-03T01:33:26;2.60;99.90
3846;DHT22;1938;50.812;7.738;2023-04-03T01:35:51;2.50;99.90
3846;DHT22;1938;50.812;7.738;2023-04-03T01:38:17;2.50;99.90
3846;DHT22;1938;50.812;7.738;2023-04-03T01:40:43;2.40;99.90
3846;DHT22;1938;50.812;7.738;2023-04-03T01:43:08;2.60;1.00
3846;DHT22;1938;50.812;7.738;2023-04-03T01:45:34;2.60;99.90
3846;DHT22;1938;50.812;7.738;2023-04-03T01:48:01;2.40;99.90
3846;DHT22;1938;50.812;7.738;2023-04-03T01:50:26;2.40;99.90
3846;DHT22;1938;50.812;7.738;2023-04-03T01:52:53;2.30;99.90
3846;DHT22;1938;50.812;7.738;2023-04-03T01:55:18;2.20;99.90
3846;DHT22;1938;50.812;7.738;2023-04-03T01:57:44;2.30;99.90
3846;DHT22;1938;50.812;7.738;2023-04-03T02:00:10;2.20;99.90
3846;DHT22;1938;50.812;7.738;2023-04-03T02:02:35;2.30;99.90
3846;DHT22;1938;50.812;7.738;2023-04-03T02:05:01;2.20;99.90
3846;DHT22;1938;50.812;7.738;2023-04-03T02:07:26;2.30;99.90
3846;DHT22;1938;50.812;7.738;2023-04-03T02:09:53;2.30;99.90
3846;DHT22;1938;50.812;7.738;2023-04-03T02:12:19;2.30;99.90
3846;DHT22;1938;50.812;7.738;2023-04-03T02:14:45;2.20;99.90
3846;DHT22;1938;50.812;7.738;2023-04-03T02:17:11;2.20;99.90
3846;DHT22;1938;50.812;7.738;2023-04-03T02:19:37;2.10;99.90
3846;DHT22;1938;50.812;7.738;2023-04-03T02:22:03;2.10;99.90
3846;DHT22;1938;50.812;7.738;2023-04-03T02:24:30;2.00;99.90
3846;DHT22;1938;50.812;7.738;2023-04-03T02:26:55;2.00;99.90
3846;DHT22;1938;50.812;7.738;2023-04-03T02:29:21;1.90;99.90
3846;DHT22;1938;50.812;7.738;2023-04-03T02:31:46;1.90;99.90
3846;DHT22;1938;50.812;7.738;2023-04-03T02:34:12;1.80;99.90
3846;DHT22;1938;50.812;7.738;2023-04-03T02:36:37;1.80;99.90
3846;DHT22;1938;50.812;7.738;2023-04-03T02:39:03;1.70;99.90
3846;DHT22;1938;50.812;7.738;2023-04-03T02:41:29;1.70;1.00
3846;DHT22;1938;50.812;7.738;2023-04-03T02:44:01;1.60;1.00
3846;DHT22;1938;50.812;7.738;2023-04-03T02:46:27;1.50;1.00
3846;DHT22;1938;50.812;7.738;2023-04-03T02:48:52;1.50;1.00
3846;DHT22;1938;50.812;7.738;2023-04-03T02:51:19;1.50;1.00
3846;DHT22;1938;50.812;7.738;2023-04-03T02:53:44;1.50;1.00
3846;DHT22;1938;50.812;7.738;2023-04-03T02:56:10;1.50;1.00
3846;DHT22;1938;50.812;7.738;2023-04-03T02:58:35;1.40;1.00
3846;DHT22;1938;50.812;7.738;2023-04-03T03:01:01;1.40;1.00
3846;DHT22;1938;50.812;7.738;2023-04-03T03:03:27;1.40;1.00
3846;DHT22;1938;50.812;7.738;2023-04-03T03:06:14;1.30;1.00
3846;DHT22;1938;50.812;7.738;2023-04-03T03:08:41;1.30;1.00
3846;DHT22;1938;50.812;7.738;2023-04-03T03:11:07;1.50;2.60
3846;DHT22;1938;50.812;7.738;2023-04-03T03:13:33;1.40;1.00
3846;DHT22;1938;50.812;7.738;2023-04-03T03:15:59;1.30;1.00
3846;DHT22;1938;50.812;7.738;2023-04-03T03:18:25;1.30;1.00
3846;DHT22;1938;50.812;7.738;2023-04-03T03:20:58;1.30;1.00
3846;DHT22;1938;50.812;7.738;2023-04-03T03:23:25;1.20;1.00
3846;DHT22;1938;50.812;7.738;2023-04-03T03:26:03;1.20;1.00
3846;DHT22;1938;50.812;7.738;2023-04-03T03:28:30;1.10;1.00
3846;DHT22;1938;50.812;7.738;2023-04-03T03:30:58;1.10;1.00
3846;DHT22;1938;50.812;7.738;2023-04-03T03:33:24;1.20;1.00
3846;DHT22;1938;50.812;7.738;2023-04-03T03:35:51;1.30;93.20
3846;DHT22;1938;50.812;7.738;2023-04-03T03:38:17;1.10;1.00
3846;DHT22;1938;50.812;7.738;2023-04-03T03:40:42;1.00;1.00
3846;DHT22;1938;50.812;7.738;2023-04-03T03:43:08;1.00;1.00
3846;DHT22;1938;50.812;7.738;2023-04-03T03:45:34;0.90;62.40
3846;DHT22;1938;50.812;7.738;2023-04-03T03:48:01;0.80;55.10
3846;DHT22;1938;50.812;7.738;2023-04-03T03:50:26;0.70;99.90
3846;DHT22;1938;50.812;7.738;2023-04-03T03:52:52;0.90;99.90
3846;DHT22;1938;50.812;7.738;2023-04-03T03:55:17;0.80;86.60
3846;DHT22;1938;50.812;7.738;2023-04-03T03:57:43;0.70;99.90
3846;DHT22;1938;50.812;7.738;2023-04-03T04:00:09;0.70;99.90
3846;DHT22;1938;50.812;7.738;2023-04-03T04:02:35;0.60;99.90
3846;DHT22;1938;50.812;7.738;2023-04-03T04:05:00;0.50;99.90
3846;DHT22;1938;50.812;7.738;2023-04-03T04:07:26;0.60;99.90
3846;DHT22;1938;50.812;7.738;2023-04-03T04:09:54;0.50;99.90
3846;DHT22;1938;50.812;7.738;2023-04-03T04:12:20;0.50;99.90
3846;DHT22;1938;50.812;7.738;2023-04-03T04:14:46;0.30;99.90
3846;DHT22;1938;50.812;7.738;2023-04-03T04:17:15;0.30;1.00
3846;DHT22;1938;50.812;7.738;2023-04-03T04:19:41;0.30;1.00
3846;DHT22;1938;50.812;7.738;2023-04-03T04:22:07;0.30;1.00
3846;DHT22;1938;50.812;7.738;2023-04-03T04:24:32;0.40;22.00
3846;DHT22;1938;50.812;7.738;2023-04-03T04:26:58;0.30;1.00
3846;DHT22;1938;50.812;7.738;2023-04-03T04:29:24;0.30;1.00
3846;DHT22;1938;50.812;7.738;2023-04-03T04:31:50;0.20;1.00
3846;DHT22;1938;50.812;7.738;2023-04-03T04:34:16;0.20;29.50
3846;DHT22;1938;50.812;7.738;2023-04-03T04:36:41;0.10;9.00
3846;DHT22;1938;50.812;7.738;2023-04-03T04:39:07;0.20;46.00
3846;DHT22;1938;50.812;7.738;2023-04-03T04:41:33;0.20;17.50
3846;DHT22;1938;50.812;7.738;2023-04-03T04:44:00;0.20;42.00
3846;DHT22;1938;50.812;7.738;2023-04-03T04:46:25;0.10;48.00
3846;DHT22;1938;50.812;7.738;2023-04-03T04:48:52;0.20;99.90
3846;DHT22;1938;50.812;7.738;2023-04-03T04:51:18;0.20;1.00
3846;DHT22;1938;50.812;7.738;2023-04-03T04:53:43;0.20;54.70
3846;DHT22;1938;50.812;7.738;2023-04-03T04:56:09;0.10;1.00
3846;DHT22;1938;50.812;7.738;2023-04-03T04:58:36;0.10;13.40
3846;DHT22;1938;50.812;7.738;2023-04-03T05:01:03;0.10;1.00
3846;DHT22;1938;50.812;7.738;2023-04-03T05:03:31;0.10;23.00
3846;DHT22;1938;50.812;7.738;2023-04-03T05:05:56;0.10;38.70
3846;DHT22;1938;50.812;7.738;2023-04-03T05:08:23;0.10;23.20
3846;DHT22;1938;50.812;7.738;2023-04-03T05:10:48;0.10;99.90
3846;DHT22;1938;50.812;7.738;2023-04-03T05:13:14;0.30;68.00
3846;DHT22;1938;50.812;7.738;2023-04-03T05:15:40;0.30;1.00
3846;DHT22;1938;50.812;7.738;2023-04-03T05:18:06;0.20;1.00
3846;DHT22;1938;50.812;7.738;2023-04-03T05:20:32;0.20;1.00
3846;DHT22;1938;50.812;7.738;2023-04-03T05:22:58;0.20;1.00
3846;DHT22;1938;50.812;7.738;2023-04-03T05:25:24;0.20;1.00
3846;DHT22;1938;50.812;7.738;2023-04-03T05:27:50;0.10;1.00
3846;DHT22;1938;50.812;7.738;2023-04-03T05:30:16;0.10;1.00
3846;DHT22;1938;50.812;7.738;2023-04-03T05:32:43;0.10;99.90
3846;DHT22;1938;50.812;7.738;2023-04-03T05:35:09;0.20;1.00
3846;DHT22;1938;50.812;7.738;2023-04-03T05:37:35;0.30;99.90
3846;DHT22;1938;50.812;7.738;2023-04-03T05:40:01;0.20;99.90
3846;DHT22;1938;50.812;7.738;2023-04-03T05:42:27;0.30;99.90
3846;DHT22;1938;50.812;7.738;2023-04-03T05:44:53;0.30;99.90
3846;DHT22;1938;50.812;7.738;2023-04-03T05:47:19;0.70;99.90
3846;DHT22;1938;50.812;7.738;2023-04-03T05:49:45;1.50;99.90
3846;DHT22;1938;50.812;7.738;2023-04-03T05:54:47;3.10;1.00
3846;DHT22;1938;50.812;7.738;2023-04-03T05:57:14;4.40;1.00
3846;DHT22;1938;50.812;7.738;2023-04-03T05:59:43;5.80;99.90
3846;DHT22;1938;50.812;7.738;2023-04-03T06:02:26;6.50;99.90
3846;DHT22;1938;50.812;7.738;2023-04-03T06:04:52;7.20;99.90
3846;DHT22;1938;50.812;7.738;2023-04-03T06:07:20;8.20;99.90
3846;DHT22;1938;50.812;7.738;2023-04-03T06:09:48;9.00;99.90
3846;DHT22;1938;50.812;7.738;2023-04-03T06:12:14;9.80;99.90
3846;DHT22;1938;50.812;7.738;2023-04-03T06:14:40;10.30;99.90
3846;DHT22;1938;50.812;7.738;2023-04-03T06:17:07;10.00;99.90
3846;DHT22;1938;50.812;7.738;2023-04-03T06:19:34;9.90;99.90
3846;DHT22;1938;50.812;7.738;2023-04-03T06:21:59;10.40;99.90
3846;DHT22;1938;50.812;7.738;2023-04-03T06:24:25;10.90;99.90
3846;DHT22;1938;50.812;7.738;2023-04-03T06:26:52;12.10;99.90
3846;DHT22;1938;50.812;7.738;2023-04-03T06:29:18;12.10;1.00
3846;DHT22;1938;50.812;7.738;2023-04-03T06:31:44;11.60;99.90
3846;DHT22;1938;50.812;7.738;2023-04-03T06:34:10;12.70;1.00
3846;DHT22;1938;50.812;7.738;2023-04-03T06:36:38;13.60;1.00
3846;DHT22;1938;50.812;7.738;2023-04-03T06:39:04;13.70;1.00
3846;DHT22;1938;50.812;7.738;2023-04-03T06:41:30;13.60;1.00
3846;DHT22;1938;50.812;7.738;2023-04-03T06:43:56;13.90;1.00
3846;DHT22;1938;50.812;7.738;2023-04-03T06:46:24;13.60;1.00
3846;DHT22;1938;50.812;7.738;2023-04-03T06:48:50;12.40;1.00
3846;DHT22;1938;50.812;7.738;2023-04-03T06:53:46;11.50;99.90
3846;DHT22;1938;50.812;7.738;2023-04-03T06:56:12;10.70;99.90
3846;DHT22;1938;50.812;7.738;2023-04-03T06:58:37;11.30;99.90
3846;DHT22;1938;50.812;7.738;2023-04-03T07:01:03;11.10;99.90
3846;DHT22;1938;50.812;7.738;2023-04-03T07:03:29;11.70;99.90
3846;DHT22;1938;50.812;7.738;2023-04-03T07:05:54;12.20;99.90
3846;DHT22;1938;50.812;7.738;2023-04-03T07:08:20;11.90;99.90
3846;DHT22;1938;50.812;7.738;2023-04-03T07:10:48;12.50;99.90
3846;DHT22;1938;50.812;7.738;2023-04-03T07:13:13;13.00;99.90
3846;DHT22;1938;50.812;7.738;2023-04-03T07:15:39;13.70;1.00
3846;DHT22;1938;50.812;7.738;2023-04-03T07:18:04;12.80;99.90
3846;DHT22;1938;50.812;7.738;2023-04-03T07:20:31;13.30;99.90
3846;DHT22;1938;50.812;7.738;2023-04-03T07:22:56;12.40;99.90
3846;DHT22;1938;50.812;7.738;2023-04-03T07:25:22;12.60;99.90
3846;DHT22;1938;50.812;7.738;2023-04-03T07:27:47;11.90;99.90
3846;DHT22;1938;50.812;7.738;2023-04-03T07:30:14;11.40;99.90
3846;DHT22;1938;50.812;7.738;2023-04-03T07:32:40;12.10;99.90
3846;DHT22;1938;50.812;7.738;2023-04-03T07:35:06;11.50;99.90
3846;DHT22;1938;50.812;7.738;2023-04-03T07:37:33;12.00;99.90
3846;DHT22;1938;50.812;7.738;2023-04-03T07:39:58;11.70;99.90
3846;DHT22;1938;50.812;7.738;2023-04-03T07:42:25;11.70;99.90
3846;DHT22;1938;50.812;7.738;2023-04-03T07:44:53;10.90;99.90
3846;DHT22;1938;50.812;7.738;2023-04-03T07:47:19;9.20;99.90
3846;DHT22;1938;50.812;7.738;2023-04-03T07:49:46;9.40;99.90
3846;DHT22;1938;50.812;7.738;2023-04-03T07:52:12;10.00;99.90
3846;DHT22;1938;50.812;7.738;2023-04-03T07:54:39;10.40;99.90
3846;DHT22;1938;50.812;7.738;2023-04-03T07:57:05;10.20;99.90
3846;DHT22;1938;50.812;7.738;2023-04-03T07:59:31;10.80;99.90
3846;DHT22;1938;50.812;7.738;2023-04-03T08:01:57;10.60;99.90
3846;DHT22;1938;50.812;7.738;2023-04-03T08:04:23;11.50;99.90
3846;DHT22;1938;50.812;7.738;2023-04-03T08:06:48;12.10;99.90
3846;DHT22;1938;50.812;7.738;2023-04-03T08:09:15;11.50;99.90
3846;DHT22;1938;50.812;7.738;2023-04-03T08:11:41;10.90;99.90
3846;DHT22;1938;50.812;7.738;2023-04-03T08:14:07;11.20;99.90
3846;DHT22;1938;50.812;7.738;2023-04-03T08:16:32;11.40;99.90
3846;DHT22;1938;50.812;7.738;2023-04-03T08:18:58;11.00;99.90
3846;DHT22;1938;50.812;7.738;2023-04-03T08:21:24;11.10;99.90
3846;DHT22;1938;50.812;7.738;2023-04-03T08:23:50;9.50;99.90
3846;DHT22;1938;50.812;7.738;2023-04-03T08:26:19;9.80;99.90
3846;DHT22;1938;50.812;7.738;2023-04-03T08:28:44;10.20;99.90
3846;DHT22;1938;50.812;7.738;2023-04-03T08:31:14;12.10;99.90
3846;DHT22;1938;50.812;7.738;2023-04-03T08:33:41;11.80;99.90
3846;DHT22;1938;50.812;7.738;2023-04-03T08:36:15;12.00;99.90
3846;DHT22;1938;50.812;7.738;2023-04-03T08:38:41;11.70;99.90
3846;DHT22;1938;50.812;7.738;2023-04-03T08:41:20;11.70;99.90
3846;DHT22;1938;50.812;7.738;2023-04-03T08:49:48;11.00;99.90
3846;DHT22;1938;50.812;7.738;2023-04-03T08:52:32;11.00;99.90
3846;DHT22;1938;50.812;7.738;2023-04-03T08:55:03;8.70;99.90
3846;DHT22;1938;50.812;7.738;2023-04-03T08:57:39;7.50;99.90
3846;DHT22;1938;50.812;7.738;2023-04-03T09:00:16;7.10;99.90
3846;DHT22;1938;50.812;7.738;2023-04-03T09:02:47;6.70;99.90
3846;DHT22;1938;50.812;7.738;2023-04-03T09:05:16;6.20;99.90
3846;DHT22;1938;50.812;7.738;2023-04-03T09:07:46;6.20;99.90
3846;DHT22;1938;50.812;7.738;2023-04-03T09:10:14;6.80;99.90
3846;DHT22;1938;50.812;7.738;2023-04-03T09:12:43;7.20;99.90
3846;DHT22;1938;50.812;7.738;2023-04-03T09:15:18;7.90;99.90
3846;DHT22;1938;50.812;7.738;2023-04-03T09:20:38;7.90;99.90
3846;DHT22;1938;50.812;7.738;2023-04-03T09:23:32;7.40;99.90
3846;DHT22;1938;50.812;7.738;2023-04-03T09:26:34;7.70;99.90
3846;DHT22;1938;50.812;7.738;2023-04-03T09:29:05;7.80;99.90
3846;DHT22;1938;50.812;7.738;2023-04-03T09:31:42;7.50;99.90
3846;DHT22;1938;50.812;7.738;2023-04-03T09:36:43;6.80;99.90
3846;DHT22;1938;50.812;7.738;2023-04-03T09:39:15;6.80;99.90
3846;DHT22;1938;50.812;7.738;2023-04-03T09:41:54;7.20;99.90
3846;DHT22;1938;50.812;7.738;2023-04-03T09:44:24;7.60;99.90
3846;DHT22;1938;50.812;7.738;2023-04-03T09:46:50;7.60;99.90
3846;DHT22;1938;50.812;7.738;2023-04-03T09:49:17;7.30;99.90
3846;DHT22;1938;50.812;7.738;2023-04-03T09:51:42;7.50;99.90
3846;DHT22;1938;50.812;7.738;2023-04-03T09:54:37;7.80;99.90
3846;DHT22;1938;50.812;7.738;2023-04-03T09:57:10;7.40;99.90
3846;DHT22;1938;50.812;7.738;2023-04-03T10:00:02;7.80;99.90
3846;DHT22;1938;50.812;7.738;2023-04-03T10:02:39;7.60;99.90
3846;DHT22;1938;50.812;7.738;2023-04-03T10:05:32;7.50;99.90
3846;DHT22;1938;50.812;7.738;2023-04-03T10:10:38;6.70;99.90
3846;DHT22;1938;50.812;7.738;2023-04-03T10:13:17;6.90;99.90
3846;DHT22;1938;50.812;7.738;2023-04-03T10:16:02;6.70;99.10
3846;DHT22;1938;50.812;7.738;2023-04-03T10:24:15;6.20;87.30
3846;DHT22;1938;50.812;7.738;2023-04-03T10:26:58;6.20;87.40
3846;DHT22;1938;50.812;7.738;2023-04-03T10:29:38;6.10;80.10
3846;DHT22;1938;50.812;7.738;2023-04-03T10:32:15;6.20;79.80
3846;DHT22;1938;50.812;7.738;2023-04-03T10:34:44;5.90;69.80
3846;DHT22;1938;50.812;7.738;2023-04-03T10:37:30;6.00;71.00
3846;DHT22;1938;50.812;7.738;2023-04-03T10:42:50;6.30;77.20
3846;DHT22;1938;50.812;7.738;2023-04-03T10:45:24;6.10;66.50
3846;DHT22;1938;50.812;7.738;2023-04-03T10:51:10;5.70;55.50
3846;DHT22;1938;50.812;7.738;2023-04-03T10:53:50;5.80;57.20
3846;DHT22;1938;50.812;7.738;2023-04-03T10:56:37;6.00;60.00
3846;DHT22;1938;50.812;7.738;2023-04-03T10:59:41;6.10;57.90
3846;DHT22;1938;50.812;7.738;2023-04-03T11:04:43;6.60;69.10
3846;DHT22;1938;50.812;7.738;2023-04-03T11:07:28;6.70;70.10
3846;DHT22;1938;50.812;7.738;2023-04-03T11:10:04;6.60;67.80
3846;DHT22;1938;50.812;7.738;2023-04-03T11:12:56;6.70;68.60
3846;DHT22;1938;50.812;7.738;2023-04-03T11:15:24;6.70;68.00
3846;DHT22;1938;50.812;7.738;2023-04-03T11:17:55;6.70;63.20
3846;DHT22;1938;50.812;7.738;2023-04-03T11:20:30;6.60;61.00
3846;DHT22;1938;50.812;7.738;2023-04-03T11:23:04;6.70;62.40
3846;DHT22;1938;50.812;7.738;2023-04-03T11:25:33;6.40;56.20
3846;DHT22;1938;50.812;7.738;2023-04-03T11:28:05;6.60;57.80
3846;DHT22;1938;50.812;7.738;2023-04-03T11:33:21;7.20;69.10
3846;DHT22;1938;50.812;7.738;2023-04-03T11:35:57;7.40;73.50
3846;DHT22;1938;50.812;7.738;2023-04-03T11:38:28;7.40;75.80
3846;DHT22;1938;50.812;7.738;2023-04-03T11:40:57;7.00;65.00
3846;DHT22;1938;50.812;7.738;2023-04-03T11:46:05;7.10;60.30
3846;DHT22;1938;50.812;7.738;2023-04-03T11:53:39;6.80;54.30
3846;DHT22;1938;50.812;7.738;2023-04-03T12:04:17;6.80;51.10
3846;DHT22;1938;50.812;7.738;2023-04-03T12:14:51;7.10;53.90
3846;DHT22;1938;50.812;7.738;2023-04-03T12:17:23;7.30;55.40
3846;DHT22;1938;50.812;7.738;2023-04-03T12:19:49;7.00;50.40
3846;DHT22;1938;50.812;7.738;2023-04-03T12:22:16;7.10;49.90
3846;DHT22;1938;50.812;7.738;2023-04-03T12:24:50;7.00;47.50
3846;DHT22;1938;50.812;7.738;2023-04-03T12:27:26;7.00;46.60
3846;DHT22;1938;50.812;7.738;2023-04-03T12:30:00;7.00;46.40
3846;DHT22;1938;50.812;7.738;2023-04-03T12:33:01;7.00;46.10
3846;DHT22;1938;50.812;7.738;2023-04-03T12:35:57;7.10;46.80
3846;DHT22;1938;50.812;7.738;2023-04-03T12:38:51;7.10;45.00
3846;DHT22;1938;50.812;7.738;2023-04-03T12:41:56;7.00;43.30
3846;DHT22;1938;50.812;7.738;2023-04-03T12:44:43;7.00;41.40
3846;DHT22;1938;50.812;7.738;2023-04-03T12:47:31;6.90;39.40
3846;DHT22;1938;50.812;7.738;2023-04-03T12:49:59;6.90;38.00
3846;DHT22;1938;50.812;7.738;2023-04-03T12:52:34;7.10;40.20
3846;DHT22;1938;50.812;7.738;2023-04-03T12:55:01;7.10;40.30
3846;DHT22;1938;50.812;7.738;2023-04-03T12:57:30;6.80;33.60
3846;DHT22;1938;50.812;7.738;2023-04-03T12:59:55;6.90;35.00
3846;DHT22;1938;50.812;7.738;2023-04-03T13:02:24;7.00;35.90
3846;DHT22;1938;50.812;7.738;2023-04-03T13:04:55;7.20;38.00
3846;DHT22;1938;50.812;7.738;2023-04-03T13:07:26;7.30;39.40
3846;DHT22;1938;50.812;7.738;2023-04-03T13:10:04;7.10;35.90
3846;DHT22;1938;50.812;7.738;2023-04-03T13:15:19;6.80;28.90
3846;DHT22;1938;50.812;7.738;2023-04-03T13:17:45;6.80;28.30
3846;DHT22;1938;50.812;7.738;2023-04-03T13:20:28;6.70;27.20
3846;DHT22;1938;50.812;7.738;2023-04-03T13:23:00;6.70;26.90
3846;DHT22;1938;50.812;7.738;2023-04-03T13:25:30;6.60;25.20
3846;DHT22;1938;50.812;7.738;2023-04-03T13:27:58;6.50;23.00
3846;DHT22;1938;50.812;7.738;2023-04-03T13:30:30;6.40;20.60
3846;DHT22;1938;50.812;7.738;2023-04-03T13:33:00;6.60;21.10
3846;DHT22;1938;50.812;7.738;2023-04-03T13:35:30;6.50;20.90
3846;DHT22;1938;50.812;7.738;2023-04-03T13:38:00;6.50;19.80
3846;DHT22;1938;50.812;7.738;2023-04-03T13:40:25;6.60;20.20
3846;DHT22;1938;50.812;7.738;2023-04-03T13:43:14;6.70;21.30
3846;DHT22;1938;50.812;7.738;2023-04-03T13:45:57;6.60;20.00
3846;DHT22;1938;50.812;7.738;2023-04-03T13:48:23;6.70;20.10
3846;DHT22;1938;50.812;7.738;2023-04-03T13:53:44;6.70;19.20
3846;DHT22;1938;50.812;7.738;2023-04-03T13:56:25;6.90;21.10
3846;DHT22;1938;50.812;7.738;2023-04-03T13:59:02;7.10;22.80
3846;DHT22;1938;50.812;7.738;2023-04-03T14:01:53;7.20;23.40
3846;DHT22;1938;50.812;7.738;2023-04-03T14:04:23;7.30;24.20
3846;DHT22;1938;50.812;7.738;2023-04-03T14:06:49;6.80;18.80
3846;DHT22;1938;50.812;7.738;2023-04-03T14:09:18;6.80;16.40
3846;DHT22;1938;50.812;7.738;2023-04-03T14:11:45;7.00;18.50
3846;DHT22;1938;50.812;7.738;2023-04-03T14:14:24;7.00;18.50
3846;DHT22;1938;50.812;7.738;2023-04-03T14:16:53;7.20;19.20
3846;DHT22;1938;50.812;7.738;2023-04-03T14:19:23;7.30;20.30
3846;DHT22;1938;50.812;7.738;2023-04-03T14:21:50;7.10;18.00
3846;DHT22;1938;50.812;7.738;2023-04-03T14:24:16;7.10;16.80
3846;DHT22;1938;50.812;7.738;2023-04-03T14:26:43;7.20;17.50
3846;DHT22;1938;50.812;7.738;2023-04-03T14:29:10;7.20;16.70
3846;DHT22;1938;50.812;7.738;2023-04-03T14:31:36;7.00;13.40
3846;DHT22;1938;50.812;7.738;2023-04-03T14:34:02;7.00;13.00
3846;DHT22;1938;50.812;7.738;2023-04-03T14:36:30;7.10;13.40
3846;DHT22;1938;50.812;7.738;2023-04-03T14:38:57;6.90;10.40
3846;DHT22;1938;50.812;7.738;2023-04-03T14:41:24;6.90;11.50
3846;DHT22;1938;50.812;7.738;2023-04-03T14:43:51;6.80;9.00
3846;DHT22;1938;50.812;7.738;2023-04-03T14:46:31;6.90;8.40
3846;DHT22;1938;50.812;7.738;2023-04-03T14:48:58;7.00;9.40
3846;DHT22;1938;50.812;7.738;2023-04-03T14:51:24;6.80;6.70
3846;DHT22;1938;50.812;7.738;2023-04-03T14:53:50;6.60;4.90
3846;DHT22;1938;50.812;7.738;2023-04-03T14:56:25;6.70;4.70
3846;DHT22;1938;50.812;7.738;2023-04-03T14:58:58;6.80;6.30
3846;DHT22;1938;50.812;7.738;2023-04-03T15:01:26;6.90;7.80
3846;DHT22;1938;50.812;7.738;2023-04-03T15:03:52;6.90;6.50
3846;DHT22;1938;50.812;7.738;2023-04-03T15:06:17;6.80;5.40
3846;DHT22;1938;50.812;7.738;2023-04-03T15:08:45;6.80;4.30
3846;DHT22;1938;50.812;7.738;2023-04-03T15:11:12;6.90;5.00
3846;DHT22;1938;50.812;7.738;2023-04-03T15:13:39;6.70;3.00
3846;DHT22;1938;50.812;7.738;2023-04-03T15:16:16;6.70;2.30
3846;DHT22;1938;50.812;7.738;2023-04-03T15:18:42;6.70;1.20
3846;DHT22;1938;50.812;7.738;2023-04-03T15:21:08;6.80;2.00
3846;DHT22;1938;50.812;7.738;2023-04-03T15:23:33;7.00;3.00
3846;DHT22;1938;50.812;7.738;2023-04-03T15:25:59;7.10;4.20
3846;DHT22;1938;50.812;7.738;2023-04-03T15:28:38;7.10;4.20
3846;DHT22;1938;50.812;7.738;2023-04-03T15:31:05;7.20;4.80
3846;DHT22;1938;50.812;7.738;2023-04-03T15:33:31;7.30;5.50
3846;DHT22;1938;50.812;7.738;2023-04-03T15:35:57;7.40;6.60
3846;DHT22;1938;50.812;7.738;2023-04-03T15:38:24;7.20;4.00
3846;DHT22;1938;50.812;7.738;2023-04-03T15:40:49;7.30;3.70
3846;DHT22;1938;50.812;7.738;2023-04-03T15:43:16;7.10;1.90
3846;DHT22;1938;50.812;7.738;2023-04-03T15:45:42;7.10;1.00
3846;DHT22;1938;50.812;7.738;2023-04-03T15:48:09;7.00;1.00
3846;DHT22;1938;50.812;7.738;2023-04-03T15:50:35;7.10;1.00
3846;DHT22;1938;50.812;7.738;2023-04-03T15:53:01;7.10;1.00
3846;DHT22;1938;50.812;7.738;2023-04-03T15:55:29;7.20;1.00
3846;DHT22;1938;50.812;7.738;2023-04-03T15:57:56;7.10;1.00
3846;DHT22;1938;50.812;7.738;2023-04-03T16:00:23;7.00;1.00
3846;DHT22;1938;50.812;7.738;2023-04-03T16:02:52;6.90;1.00
3846;DHT22;1938;50.812;7.738;2023-04-03T16:05:19;6.90;1.00
3846;DHT22;1938;50.812;7.738;2023-04-03T16:07:46;6.90;1.00
3846;DHT22;1938;50.812;7.738;2023-04-03T16:10:13;6.80;1.00
3846;DHT22;1938;50.812;7.738;2023-04-03T16:12:41;6.70;1.00
3846;DHT22;1938;50.812;7.738;2023-04-03T16:15:07;6.70;1.00
3846;DHT22;1938;50.812;7.738;2023-04-03T16:17:34;6.60;1.00
3846;DHT22;1938;50.812;7.738;2023-04-03T16:20:01;6.60;1.00
3846;DHT22;1938;50.812;7.738;2023-04-03T16:22:27;6.50;1.00
3846;DHT22;1938;50.812;7.738;2023-04-03T16:24:54;6.50;1.00
3846;DHT22;1938;50.812;7.738;2023-04-03T16:27:20;6.40;1.00
3846;DHT22;1938;50.812;7.738;2023-04-03T16:29:46;6.50;1.00
3846;DHT22;1938;50.812;7.738;2023-04-03T16:32:13;6.50;1.00
3846;DHT22;1938;50.812;7.738;2023-04-03T16:34:39;6.40;1.00
3846;DHT22;1938;50.812;7.738;2023-04-03T16:37:06;6.50;1.00
3846;DHT22;1938;50.812;7.738;2023-04-03T16:39:34;6.50;1.00
3846;DHT22;1938;50.812;7.738;2023-04-03T16:42:00;6.50;1.00
3846;DHT22;1938;50.812;7.738;2023-04-03T16:44:26;6.40;1.00
3846;DHT22;1938;50.812;7.738;2023-04-03T16:46:52;6.30;1.00
3846;DHT22;1938;50.812;7.738;2023-04-03T16:49:17;6.30;1.00
3846;DHT22;1938;50.812;7.738;2023-04-03T16:51:44;6.20;1.00
3846;DHT22;1938;50.812;7.738;2023-04-03T16:54:10;6.20;1.00
3846;DHT22;1938;50.812;7.738;2023-04-03T16:56:38;6.10;1.00
3846;DHT22;1938;50.812;7.738;2023-04-03T16:59:04;5.90;1.00
3846;DHT22;1938;50.812;7.738;2023-04-03T17:01:30;6.00;1.00
3846;DHT22;1938;50.812;7.738;2023-04-03T17:03:56;5.80;1.00
3846;DHT22;1938;50.812;7.738;2023-04-03T17:06:22;5.70;1.00
3846;DHT22;1938;50.812;7.738;2023-04-03T17:08:50;5.60;1.00
3846;DHT22;1938;50.812;7.738;2023-04-03T17:11:16;5.60;1.00
3846;DHT22;1938;50.812;7.738;2023-04-03T17:13:43;5.60;1.00
3846;DHT22;1938;50.812;7.738;2023-04-03T17:16:11;5.50;1.00
3846;DHT22;1938;50.812;7.738;2023-04-03T17:18:39;5.50;1.00
3846;DHT22;1938;50.812;7.738;2023-04-03T17:21:05;5.60;1.00
3846;DHT22;1938;50.812;7.738;2023-04-03T17:23:34;5.40;1.00
3846;DHT22;1938;50.812;7.738;2023-04-03T17:26:01;5.40;1.00
3846;DHT22;1938;50.812;7.738;2023-04-03T17:28:28;5.30;1.00
3846;DHT22;1938;50.812;7.738;2023-04-03T17:30:57;5.20;1.00
3846;DHT22;1938;50.812;7.738;2023-04-03T17:33:23;5.10;1.00
3846;DHT22;1938;50.812;7.738;2023-04-03T17:35:49;5.10;1.00
3846;DHT22;1938;50.812;7.738;2023-04-03T17:38:16;5.00;1.00
3846;DHT22;1938;50.812;7.738;2023-04-03T17:40:42;5.00;1.00
3846;DHT22;1938;50.812;7.738;2023-04-03T17:43:09;4.90;1.00
3846;DHT22;1938;50.812;7.738;2023-04-03T17:45:37;4.80;1.00
3846;DHT22;1938;50.812;7.738;2023-04-03T17:48:03;4.80;1.00
3846;DHT22;1938;50.812;7.738;2023-04-03T17:50:29;4.80;1.00
3846;DHT22;1938;50.812;7.738;2023-04-03T17:52:54;4.70;1.00